Time;durP1;ratioP1;P1;durP2;ratioP2;P2;SDS_P1;SDS_P2;PMS_P1;PMS_P2;Temp;Humidity;BMP_temperature;BMP_pressure;BME280_temperature;BME280_humidity;BME280_pressure;Samples;Min_cycle;Max_cycle;Signal;HPM_P1;HPM_P2
2024/03/10 00:02:14;;;;;;;21.97;14.10;;;2.90;99.90;2.60;99465.00;;;;4881418;28;85100;-65
2024/03/10 00:04:41;;;;;;;23.10;13.70;;;2.80;99.90;2.60;99462.00;;;;4879692;28;84337;-64
2024/03/10 00:07:07;;;;;;;24.63;14.57;;;2.90;99.90;2.60;99456.00;;;;4882372;28;84219;-63
2024/03/10 00:09:32;;;;;;;23.13;15.30;;;3.20;99.90;2.60;99448.00;;;;4881849;28;83651;-63
2024/03/10 00:11:58;;;;;;;25.23;14.73;;;2.90;99.90;2.60;99438.00;;;;4882909;28;113167;-64
2024/03/10 00:14:23;;;;;;;23.23;13.60;;;2.90;99.90;2.50;99438.00;;;;4882359;28;97906;-64
2024/03/10 00:16:49;;;;;;;24.03;15.77;;;2.80;99.90;2.50;99433.00;;;;4879237;28;107183;-64
2024/03/10 00:19:15;;;;;;;25.13;14.87;;;2.80;99.90;2.50;99439.00;;;;4879032;28;83572;-63
2024/03/10 00:21:41;;;;;;;23.13;14.93;;;2.70;99.90;2.50;99434.00;;;;4876652;28;84695;-64
2024/03/10 00:24:09;;;;;;;30.73;16.10;;;3.60;99.90;2.50;99441.00;;;;4879945;28;113526;-63
2024/03/10 00:26:35;;;;;;;22.97;15.03;;;2.70;99.90;2.50;99446.00;;;;4882672;28;83461;-64
2024/03/10 00:29:01;;;;;;;22.67;14.50;;;2.70;99.90;2.50;99446.00;;;;4886297;28;113440;-64
2024/03/10 00:31:27;;;;;;;22.20;14.60;;;2.80;99.90;2.50;99435.00;;;;4880872;28;85645;-64
2024/03/10 00:33:52;;;;;;;28.70;15.90;;;3.70;99.90;2.50;99433.00;;;;4875949;28;113312;-63
2024/03/10 00:36:20;;;;;;;25.50;16.10;;;2.80;99.90;2.50;99439.00;;;;4883554;28;98303;-64
2024/03/10 00:38:45;;;;;;;19.87;13.33;;;2.70;99.90;2.50;99436.00;;;;4882441;28;83744;-64
2024/03/10 00:41:11;;;;;;;29.00;15.30;;;2.70;99.90;2.50;99433.00;;;;4881744;28;112070;-64
2024/03/10 00:43:37;;;;;;;28.47;16.33;;;2.60;99.90;2.50;99431.00;;;;4876959;28;111468;-64
2024/03/10 00:46:04;;;;;;;27.77;16.77;;;2.80;99.90;2.50;99430.00;;;;4882713;28;110817;-64
2024/03/10 00:48:29;;;;;;;23.57;15.40;;;2.70;99.90;2.50;99427.00;;;;4877337;28;86579;-63
2024/03/10 00:50:55;;;;;;;27.80;17.80;;;2.80;99.90;2.50;99413.00;;;;4878229;28;104018;-63
2024/03/10 00:53:21;;;;;;;28.40;14.83;;;2.70;99.90;2.50;99425.00;;;;4877779;28;84277;-63
2024/03/10 00:55:47;;;;;;;18.40;12.63;;;2.90;99.90;2.50;99415.00;;;;4886969;28;85654;-63
2024/03/10 00:58:13;;;;;;;23.20;14.13;;;3.10;99.90;2.50;99424.00;;;;4879618;28;83563;-64
2024/03/10 01:00:40;;;;;;;24.53;15.63;;;2.70;99.90;2.50;99409.00;;;;4878765;28;84375;-63
2024/03/10 01:03:10;;;;;;;22.40;14.43;;;2.70;99.90;2.50;99414.00;;;;4883192;28;84015;-64
2024/03/10 01:05:36;;;;;;;23.07;14.60;;;2.70;99.90;2.50;99418.00;;;;4880983;28;88996;-63
2024/03/10 01:08:02;;;;;;;20.60;14.07;;;2.70;99.90;2.50;99409.00;;;;4883355;28;111434;-64
2024/03/10 01:10:28;;;;;;;18.97;13.37;;;2.80;99.90;2.50;99416.00;;;;4874553;28;84210;-64
2024/03/10 01:12:54;;;;;;;22.27;15.00;;;2.70;99.90;2.50;99404.00;;;;4879261;28;107508;-64
2024/03/10 01:15:21;;;;;;;23.57;14.40;;;3.00;99.90;2.50;99401.00;;;;4880258;28;84246;-65
2024/03/10 01:17:47;;;;;;;18.40;11.87;;;2.80;99.90;2.50;99394.00;;;;4877432;28;83663;-65
2024/03/10 01:20:13;;;;;;;22.70;15.13;;;2.70;99.90;2.40;99400.00;;;;4875858;28;100690;-64
2024/03/10 01:22:39;;;;;;;20.57;14.30;;;2.70;99.90;2.50;99396.00;;;;4883614;28;83458;-64
2024/03/10 01:25:05;;;;;;;22.53;13.53;;;2.80;99.90;2.40;99393.00;;;;4880769;28;83408;-64
2024/03/10 01:27:32;;;;;;;28.07;15.03;;;2.70;99.90;2.40;99393.00;;;;4882017;28;102579;-65
2024/03/10 01:29:57;;;;;;;21.00;13.77;;;3.10;99.90;2.40;99390.00;;;;4886589;28;84340;-64
2024/03/10 01:32:23;;;;;;;21.87;15.87;;;2.60;99.90;2.40;99389.00;;;;4876583;28;113314;-65
2024/03/10 01:34:49;;;;;;;21.67;14.93;;;3.10;99.90;2.40;99388.00;;;;4876841;28;83740;-64
2024/03/10 01:37:15;;;;;;;21.60;13.90;;;2.70;99.90;2.40;99387.00;;;;4877987;28;84704;-64
2024/03/10 01:39:41;;;;;;;22.23;13.60;;;2.60;99.90;2.30;99385.00;;;;4881139;28;84093;-64
2024/03/10 01:42:07;;;;;;;21.43;13.57;;;2.60;99.90;2.30;99381.00;;;;4878314;28;113278;-64
2024/03/10 01:44:33;;;;;;;30.07;15.87;;;2.60;99.90;2.30;99380.00;;;;4878567;28;83774;-64
2024/03/10 01:47:00;;;;;;;20.53;13.97;;;2.60;99.90;2.30;99376.00;;;;4876528;28;113570;-64
2024/03/10 01:49:27;;;;;;;20.03;15.00;;;2.90;99.90;2.30;99369.00;;;;4874100;28;85744;-64
2024/03/10 01:51:55;;;;;;;21.07;12.93;;;2.60;99.90;2.30;99371.00;;;;4878371;28;107705;-64
2024/03/10 01:54:26;;;;;;;21.70;14.73;;;2.50;99.90;2.30;99372.00;;;;4878040;28;83542;-65
2024/03/10 01:56:51;;;;;;;22.30;14.60;;;2.50;99.90;2.30;99368.00;;;;4881071;28;101830;-64
2024/03/10 01:59:17;;;;;;;24.17;14.93;;;2.50;99.90;2.30;99366.00;;;;4878937;28;112254;-64
2024/03/10 02:01:46;;;;;;;23.13;16.00;;;2.50;99.90;2.30;99358.00;;;;4881606;28;84244;-64
2024/03/10 02:04:14;;;;;;;28.63;17.17;;;2.50;99.90;2.20;99363.00;;;;4878279;28;84304;-64
2024/03/10 02:06:43;;;;;;;16.93;13.30;;;2.50;99.90;2.20;99356.00;;;;4881249;28;104835;-64
2024/03/10 02:09:10;;;;;;;27.50;13.80;;;2.50;99.90;2.20;99366.00;;;;4882820;28;84149;-64
2024/03/10 02:11:36;;;;;;;28.57;16.57;;;2.50;99.90;2.20;99361.00;;;;4874684;28;97081;-65
2024/03/10 02:14:05;;;;;;;28.30;16.07;;;2.40;99.90;2.10;99349.00;;;;4880308;28;108314;-64
2024/03/10 02:16:30;;;;;;;20.77;14.93;;;3.00;99.90;2.10;99351.00;;;;4881720;28;112440;-64
2024/03/10 02:18:56;;;;;;;20.17;14.43;;;2.50;99.90;2.10;99356.00;;;;4878597;28;113315;-64
2024/03/10 02:21:22;;;;;;;19.80;14.13;;;2.50;99.90;2.10;99356.00;;;;4882012;28;113314;-65
2024/03/10 02:24:16;;;;;;;19.27;13.97;;;2.40;99.90;2.10;99351.00;;;;4880561;28;103213;-64
2024/03/10 02:26:46;;;;;;;23.77;14.47;;;2.40;99.90;2.10;99339.00;;;;4882993;28;83832;-64
2024/03/10 02:29:18;;;;;;;18.63;13.93;;;2.40;99.90;2.10;99345.00;;;;4882677;28;83750;-65
2024/03/10 02:48:13;;;;;;;23.07;14.60;;;2.40;99.90;2.20;99341.00;;;;4884375;28;83497;-64
2024/03/10 02:50:39;;;;;;;25.77;16.17;;;2.50;99.90;2.20;99324.00;;;;4880628;28;87493;-64
2024/03/10 02:53:05;;;;;;;32.07;14.87;;;2.40;99.90;2.20;99334.00;;;;4883469;28;100620;-64
2024/03/10 02:55:32;;;;;;;22.77;15.17;;;2.40;99.90;2.20;99322.00;;;;4879974;28;106608;-64
2024/03/10 02:58:06;;;;;;;24.20;13.27;;;2.40;99.90;2.20;99326.00;;;;4878431;28;83656;-64
2024/03/10 03:00:33;;;;;;;22.47;14.37;;;2.40;99.90;2.20;99320.00;;;;4884999;28;83889;-65
2024/03/10 03:03:00;;;;;;;23.87;14.40;;;2.40;99.90;2.20;99324.00;;;;4878630;28;104705;-64
2024/03/10 03:05:28;;;;;;;20.70;13.87;;;2.50;99.90;2.10;99320.00;;;;4881017;28;92265;-65
2024/03/10 03:07:55;;;;;;;22.57;14.10;;;2.40;99.90;2.10;99334.00;;;;4881616;28;84168;-64
2024/03/10 03:10:20;;;;;;;25.67;15.13;;;2.50;99.90;2.10;99321.00;;;;4880746;28;84198;-65
2024/03/10 03:12:47;;;;;;;25.73;14.13;;;2.30;99.90;2.10;99326.00;;;;4881416;28;84424;-65
2024/03/10 03:15:13;;;;;;;20.70;13.20;;;2.40;99.90;2.10;99326.00;;;;4880518;28;83495;-63
2024/03/10 03:17:41;;;;;;;25.57;14.90;;;2.40;99.90;2.10;99310.00;;;;4885015;28;84701;-63
2024/03/10 03:20:15;;;;;;;19.80;13.93;;;2.40;99.90;2.10;99320.00;;;;4882876;28;83286;-66
2024/03/10 03:22:48;;;;;;;26.80;16.90;;;2.30;99.90;2.10;99326.00;;;;4886437;28;83694;-63
2024/03/10 03:25:17;;;;;;;23.73;14.70;;;2.80;99.90;2.10;99327.00;;;;4884163;28;83694;-63
2024/03/10 03:27:50;;;;;;;26.17;14.67;;;2.30;99.90;2.00;99319.00;;;;4883491;28;84008;-63
2024/03/10 03:30:16;;;;;;;25.47;15.03;;;2.20;99.90;2.10;99326.00;;;;4886602;28;83941;-63
2024/03/10 03:32:42;;;;;;;23.77;14.70;;;2.40;99.90;2.00;99314.00;;;;4884233;28;89898;-63
2024/03/10 03:35:10;;;;;;;23.57;15.37;;;2.30;99.90;2.00;99327.00;;;;4882582;28;83291;-64
2024/03/10 03:37:36;;;;;;;21.00;13.40;;;2.30;99.90;2.00;99336.00;;;;4882841;28;84020;-63
2024/03/10 03:40:05;;;;;;;23.57;15.47;;;2.20;99.90;2.00;99326.00;;;;4884634;28;84384;-63
2024/03/10 03:42:30;;;;;;;23.13;13.87;;;2.20;99.90;2.10;99329.00;;;;4880879;28;84193;-65
2024/03/10 03:44:56;;;;;;;22.83;13.87;;;2.40;99.90;2.00;99326.00;;;;4880658;28;108716;-64
2024/03/10 03:47:22;;;;;;;22.97;15.07;;;2.30;99.90;2.00;99328.00;;;;4881840;28;112706;-64
2024/03/10 03:49:47;;;;;;;25.07;15.37;;;2.30;99.90;2.00;99335.00;;;;4879911;28;114184;-64
2024/03/10 03:52:13;;;;;;;24.33;15.37;;;2.30;99.90;2.00;99329.00;;;;4878891;28;112021;-64
2024/03/10 03:54:41;;;;;;;26.43;16.20;;;2.30;99.90;2.00;99332.00;;;;4880753;28;83833;-65
2024/03/10 03:57:06;;;;;;;25.80;16.47;;;2.30;99.90;2.00;99326.00;;;;4878715;28;83814;-63
2024/03/10 03:59:33;;;;;;;23.63;14.53;;;2.20;99.90;2.00;99321.00;;;;4883799;28;84768;-63
2024/03/10 04:01:59;;;;;;;26.07;14.17;;;3.40;99.90;2.00;99326.00;;;;4878290;28;84381;-64
2024/03/10 04:04:24;;;;;;;18.20;13.17;;;2.20;99.90;2.00;99323.00;;;;4876182;28;83336;-63
2024/03/10 04:06:50;;;;;;;24.80;13.03;;;2.20;99.90;2.00;99321.00;;;;4878243;28;113164;-64
2024/03/10 04:09:16;;;;;;;25.90;15.30;;;2.10;99.90;2.00;99316.00;;;;4883996;28;95614;-63
2024/03/10 04:11:42;;;;;;;20.73;14.60;;;2.20;99.90;2.00;99321.00;;;;4879698;28;83945;-63
2024/03/10 04:14:08;;;;;;;22.87;14.67;;;2.20;99.90;1.90;99306.00;;;;4880258;28;83429;-63
2024/03/10 04:16:34;;;;;;;24.60;14.50;;;2.20;99.90;1.90;99305.00;;;;4881035;28;83798;-64
2024/03/10 04:19:00;;;;;;;25.33;14.30;;;2.30;99.90;1.90;99299.00;;;;4878403;28;112627;-64
2024/03/10 04:21:25;;;;;;;24.17;16.30;;;2.20;99.90;1.90;99281.00;;;;4881132;28;88036;-63
2024/03/10 04:23:51;;;;;;;25.23;15.30;;;2.30;99.90;1.90;99287.00;;;;4885035;28;84654;-63
2024/03/10 04:26:18;;;;;;;25.60;15.20;;;2.20;99.90;1.90;99290.00;;;;4879475;28;112946;-63
2024/03/10 04:28:44;;;;;;;23.47;14.80;;;2.20;99.90;1.90;99288.00;;;;4883073;28;84138;-64
2024/03/10 04:31:09;;;;;;;27.03;15.03;;;2.10;99.90;1.80;99271.00;;;;4877575;28;87756;-63
2024/03/10 04:33:36;;;;;;;25.40;14.87;;;2.10;99.90;1.80;99283.00;;;;4877861;28;109671;-63
2024/03/10 04:36:01;;;;;;;22.70;14.03;;;2.60;99.90;1.80;99283.00;;;;4878635;28;83532;-64
2024/03/10 04:38:27;;;;;;;25.57;15.33;;;2.10;99.90;1.80;99277.00;;;;4878565;28;103648;-63
2024/03/10 04:40:52;;;;;;;21.63;13.70;;;2.10;99.90;1.80;99276.00;;;;4879869;28;104629;-63
2024/03/10 04:43:18;;;;;;;26.57;14.63;;;2.00;99.90;1.80;99264.00;;;;4881808;28;100777;-63
2024/03/10 04:45:44;;;;;;;23.50;13.07;;;2.10;99.90;1.80;99266.00;;;;4882958;28;112467;-64
2024/03/10 04:48:11;;;;;;;29.30;16.23;;;2.10;99.90;1.80;99265.00;;;;4877162;28;86852;-63
2024/03/10 04:50:37;;;;;;;24.57;14.70;;;2.10;99.90;1.80;99269.00;;;;4879770;28;113913;-64
2024/03/10 04:53:03;;;;;;;24.97;14.77;;;2.10;99.90;1.80;99271.00;;;;4878559;28;108678;-64
2024/03/10 04:55:29;;;;;;;21.53;14.47;;;2.00;99.90;1.90;99269.00;;;;4878227;28;85207;-63
2024/03/10 04:57:57;;;;;;;25.40;16.00;;;2.00;99.90;1.80;99267.00;;;;4879853;28;84479;-63
2024/03/10 05:00:23;;;;;;;25.13;15.27;;;2.10;99.90;1.90;99265.00;;;;4883811;28;111217;-64
2024/03/10 05:02:49;;;;;;;25.37;14.77;;;2.20;99.90;1.80;99274.00;;;;4880940;28;83494;-63
2024/03/10 05:05:16;;;;;;;21.10;14.03;;;2.20;99.90;1.80;99262.00;;;;4880199;28;112940;-64
2024/03/10 05:07:41;;;;;;;21.67;12.67;;;2.20;99.90;1.80;99269.00;;;;4879211;28;84332;-64
2024/03/10 05:10:08;;;;;;;22.43;12.67;;;1.90;99.90;1.80;99270.00;;;;4883239;28;83666;-64
2024/03/10 05:12:35;;;;;;;24.40;16.57;;;2.10;99.90;1.80;99264.00;;;;4882660;28;83574;-66
2024/03/10 05:15:04;;;;;;;24.20;13.80;;;2.20;99.90;1.80;99256.00;;;;4878742;28;85223;-64
2024/03/10 05:17:30;;;;;;;32.00;14.90;;;2.20;99.90;1.80;99276.00;;;;4877984;28;84721;-64
2024/03/10 05:19:55;;;;;;;23.10;14.43;;;2.80;99.90;1.80;99280.00;;;;4879053;28;84844;-63
2024/03/10 05:22:21;;;;;;;22.93;14.93;;;2.10;99.90;1.70;99270.00;;;;4877095;28;108967;-63
2024/03/10 05:24:47;;;;;;;24.43;14.23;;;2.00;99.90;1.70;99270.00;;;;4884504;28;83559;-63
2024/03/10 05:27:15;;;;;;;22.40;15.30;;;2.00;99.90;1.70;99266.00;;;;4878948;28;112150;-63
2024/03/10 05:29:41;;;;;;;19.37;13.47;;;2.10;99.90;1.60;99265.00;;;;4882131;28;84112;-63
2024/03/10 05:32:07;;;;;;;20.20;13.37;;;1.90;99.90;1.60;99270.00;;;;4880149;28;102297;-64
2024/03/10 05:34:35;;;;;;;21.43;16.50;;;1.80;99.90;1.60;99261.00;;;;4883409;28;112993;-63
2024/03/10 05:37:02;;;;;;;23.17;16.27;;;1.80;99.90;1.60;99268.00;;;;4883784;28;84369;-63
2024/03/10 05:39:28;;;;;;;26.03;14.20;;;2.00;99.90;1.60;99266.00;;;;4877917;28;85251;-63
2024/03/10 05:41:54;;;;;;;19.20;13.97;;;1.90;99.90;1.60;99267.00;;;;4880112;28;83516;-63
2024/03/10 05:44:20;;;;;;;24.97;15.60;;;1.80;99.90;1.60;99269.00;;;;4881035;28;113714;-62
2024/03/10 05:46:46;;;;;;;27.97;16.60;;;2.00;99.90;1.60;99262.00;;;;4878714;28;84661;-64
2024/03/10 05:49:12;;;;;;;21.87;15.27;;;1.90;99.90;1.60;99274.00;;;;4882074;28;88486;-63
2024/03/10 05:51:38;;;;;;;32.50;16.23;;;1.90;99.90;1.70;99280.00;;;;4885491;28;109706;-64
2024/03/10 05:54:05;;;;;;;22.00;13.90;;;2.00;99.90;1.70;99274.00;;;;4880177;28;113337;-63
2024/03/10 05:56:34;;;;;;;21.93;15.90;;;2.80;99.90;1.80;99276.00;;;;4878369;28;83885;-63
2024/03/10 05:59:01;;;;;;;25.73;15.90;;;1.90;99.90;1.80;99271.00;;;;4877786;28;83810;-63
2024/03/10 06:01:28;;;;;;;24.43;15.43;;;2.10;99.90;1.90;99272.00;;;;4877820;28;99531;-62
2024/03/10 06:03:54;;;;;;;26.40;14.23;;;3.00;99.90;2.00;99267.00;;;;4886149;28;83925;-63
2024/03/10 06:06:21;;;;;;;22.37;14.63;;;2.20;99.90;2.10;99270.00;;;;4881787;28;84271;-62
2024/03/10 06:08:47;;;;;;;31.00;17.63;;;2.30;99.90;2.20;99277.00;;;;4885012;28;83857;-63
2024/03/10 06:11:13;;;;;;;30.17;17.20;;;2.30;99.90;2.30;99278.00;;;;4882572;28;83184;-64
2024/03/10 06:13:39;;;;;;;26.70;16.73;;;2.40;99.90;2.40;99275.00;;;;4882609;28;83782;-63
2024/03/10 06:16:07;;;;;;;23.57;15.73;;;2.50;99.90;2.50;99282.00;;;;4885301;28;85190;-63
2024/03/10 06:25:22;;;;;;;20.70;13.37;;;2.70;99.90;2.60;99284.00;;;;4884530;28;113309;-63
2024/03/10 06:26:52;;;;;;;24.90;14.30;;;3.00;99.90;3.00;99278.00;;;;4879211;28;83941;-65
2024/03/10 06:29:18;;;;;;;23.73;15.83;;;3.20;99.90;3.10;99278.00;;;;4876358;28;103279;-63
2024/03/10 06:31:44;;;;;;;23.07;15.07;;;3.30;99.90;3.30;99277.00;;;;4875877;28;83586;-64
2024/03/10 06:34:10;;;;;;;24.00;15.33;;;3.40;99.90;3.40;99295.00;;;;4878355;28;84076;-65
2024/03/10 06:36:41;;;;;;;24.00;14.37;;;3.70;99.90;3.60;99284.00;;;;4878216;28;112422;-63
2024/03/10 06:39:10;;;;;;;24.83;17.17;;;3.70;99.90;3.70;99284.00;;;;4876749;28;83599;-64
2024/03/10 06:41:36;;;;;;;22.60;16.07;;;3.80;99.90;3.80;99292.00;;;;4873158;28;83639;-65
2024/03/10 06:44:04;;;;;;;20.33;14.23;;;3.90;99.90;3.90;99286.00;;;;4883369;28;113098;-64
2024/03/10 06:46:30;;;;;;;21.57;14.60;;;4.10;99.90;4.00;99294.00;;;;4879297;28;83696;-64
2024/03/10 06:48:55;;;;;;;20.73;13.90;;;4.20;99.90;4.20;99281.00;;;;4878983;28;87985;-65
2024/03/10 06:51:24;;;;;;;16.60;12.60;;;4.90;99.90;4.30;99286.00;;;;4877212;28;103673;-65
2024/03/10 06:53:50;;;;;;;24.00;13.67;;;4.50;99.90;4.50;99282.00;;;;4878877;28;88569;-64
2024/03/10 06:56:16;;;;;;;20.77;13.97;;;5.60;99.90;4.70;99275.00;;;;4878141;28;118286;-65
2024/03/10 06:58:50;;;;;;;20.47;14.47;;;5.80;99.90;5.00;99266.00;;;;4875930;28;89039;-66
2024/03/10 07:01:16;;;;;;;17.63;12.73;;;5.00;99.90;5.10;99277.00;;;;4876897;28;88064;-64
2024/03/10 07:03:42;;;;;;;20.27;12.50;;;6.10;99.90;5.30;99265.00;;;;4875691;28;89410;-65
2024/03/10 07:06:08;;;;;;;19.17;12.80;;;5.40;99.90;5.40;99269.00;;;;4873597;28;115906;-64
2024/03/10 07:08:34;;;;;;;25.00;12.70;;;5.50;99.90;5.50;99265.00;;;;4874316;28;88106;-64
2024/03/10 07:11:00;;;;;;;19.27;12.10;;;6.30;99.90;5.70;99261.00;;;;4875837;28;108890;-65
2024/03/10 07:13:25;;;;;;;18.37;12.73;;;5.80;99.90;5.80;99263.00;;;;4877433;28;117473;-64
2024/03/10 07:15:53;;;;;;;20.07;12.60;;;6.00;99.90;6.10;99258.00;;;;4873728;28;116158;-65
2024/03/10 07:18:19;;;;;;;15.17;10.43;;;6.20;99.90;6.30;99255.00;;;;4871958;28;87955;-65
2024/03/10 07:20:44;;;;;;;16.13;11.37;;;6.60;99.90;6.40;99256.00;;;;4874012;28;88017;-65
2024/03/10 07:23:10;;;;;;;22.73;13.43;;;6.00;99.90;6.60;99251.00;;;;4873800;28;118185;-65
2024/03/10 07:25:35;;;;;;;18.57;12.03;;;6.70;99.90;6.70;99253.00;;;;4874237;28;117711;-65
2024/03/10 07:28:01;;;;;;;24.43;12.47;;;7.30;99.90;6.90;99256.00;;;;4873317;28;114128;-66
2024/03/10 07:30:27;;;;;;;21.13;14.20;;;7.30;99.90;7.00;99260.00;;;;4875806;28;97248;-65
2024/03/10 07:32:53;;;;;;;19.73;13.10;;;7.20;99.90;7.10;99234.00;;;;4871661;28;117281;-64
2024/03/10 07:35:21;;;;;;;22.10;12.93;;;7.10;99.90;7.10;99244.00;;;;4875059;28;88955;-65
2024/03/10 07:37:47;;;;;;;16.20;10.43;;;7.40;99.90;7.20;99226.00;;;;4874249;28;88214;-64
2024/03/10 07:40:19;;;;;;;23.33;11.87;;;7.30;99.90;7.30;99235.00;;;;4878802;28;87492;-65
2024/03/10 07:42:48;;;;;;;21.83;13.37;;;7.40;99.90;7.50;99226.00;;;;4877865;28;88516;-65
2024/03/10 07:45:17;;;;;;;20.70;11.23;;;7.40;99.90;7.60;99245.00;;;;4875774;28;88514;-65
2024/03/10 07:47:47;;;;;;;20.87;13.00;;;7.60;99.90;7.70;99244.00;;;;4873692;28;89058;-64
2024/03/10 07:50:17;;;;;;;15.53;11.20;;;7.80;99.90;7.90;99247.00;;;;4875500;28;88620;-64
2024/03/10 07:52:46;;;;;;;21.97;14.13;;;7.80;99.90;8.00;99246.00;;;;4877625;28;106611;-64
2024/03/10 07:55:12;;;;;;;23.23;15.27;;;8.10;99.90;8.00;99251.00;;;;4876805;28;88518;-65
2024/03/10 07:57:40;;;;;;;16.47;11.80;;;8.10;99.90;8.10;99259.00;;;;4873227;28;93173;-66
2024/03/10 08:00:21;;;;;;;22.97;11.90;;;8.20;99.90;8.20;99265.00;;;;4873444;28;87944;-64
2024/03/10 08:02:47;;;;;;;20.03;13.47;;;8.20;99.90;8.20;99256.00;;;;4872201;28;89222;-65
2024/03/10 08:05:13;;;;;;;18.03;12.20;;;8.30;99.90;8.40;99258.00;;;;4873596;28;116201;-65
2024/03/10 08:07:43;;;;;;;14.77;10.03;;;8.50;99.90;8.50;99257.00;;;;4868074;28;101457;-65
2024/03/10 08:10:12;;;;;;;14.63;10.07;;;8.60;99.90;8.70;99249.00;;;;4887856;28;87712;-65
2024/03/10 08:12:39;;;;;;;17.30;9.50;;;8.70;99.90;8.90;99253.00;;;;4871581;28;89511;-65
2024/03/10 08:15:11;;;;;;;18.97;12.33;;;8.90;99.90;9.00;99267.00;;;;4872221;28;99097;-66
2024/03/10 08:17:38;;;;;;;16.37;8.73;;;9.00;99.90;9.10;99260.00;;;;4874821;28;87971;-65
2024/03/10 08:20:08;;;;;;;20.23;11.17;;;9.10;99.90;9.20;99277.00;;;;4876710;28;88009;-65
2024/03/10 08:22:37;;;;;;;14.00;8.47;;;9.20;99.90;9.20;99281.00;;;;4874942;28;88140;-65
2024/03/10 08:25:06;;;;;;;13.67;9.73;;;9.20;99.90;9.20;99287.00;;;;4874751;28;117783;-65
2024/03/10 08:27:36;;;;;;;17.33;10.83;;;9.30;99.90;9.30;99278.00;;;;4873993;28;95390;-65
2024/03/10 08:30:03;;;;;;;18.30;10.47;;;9.30;99.90;9.30;99277.00;;;;4871647;28;88258;-65
2024/03/10 08:32:33;;;;;;;20.30;11.80;;;9.30;99.90;9.40;99281.00;;;;4886771;28;88272;-64
2024/03/10 08:34:58;;;;;;;17.87;10.97;;;9.40;99.90;9.50;99280.00;;;;4870612;28;88721;-65
2024/03/10 08:37:28;;;;;;;14.67;9.63;;;9.40;99.90;9.60;99283.00;;;;4872574;28;113675;-64
2024/03/10 08:39:54;;;;;;;13.00;9.50;;;9.50;99.90;9.80;99277.00;;;;4876576;28;88008;-65
2024/03/10 08:42:24;;;;;;;17.80;11.87;;;9.70;99.90;10.00;99270.00;;;;4876495;28;88944;-65
2024/03/10 08:44:51;;;;;;;16.10;11.53;;;9.90;99.90;10.20;99262.00;;;;4876082;28;88749;-65
2024/03/10 08:47:16;;;;;;;18.27;11.37;;;10.10;99.90;10.40;99252.00;;;;4872473;28;88219;-65
2024/03/10 08:49:42;;;;;;;15.80;9.00;;;10.30;99.90;10.60;99258.00;;;;4872918;28;108079;-65
2024/03/10 08:52:08;;;;;;;12.93;8.93;;;10.50;99.90;10.70;99249.00;;;;4871091;28;116562;-64
2024/03/10 08:54:36;;;;;;;14.33;9.83;;;10.70;99.90;10.80;99238.00;;;;4874650;28;115886;-65
2024/03/10 08:57:05;;;;;;;12.83;9.27;;;10.70;99.90;10.80;99234.00;;;;4878414;28;88381;-65
2024/03/10 08:59:31;;;;;;;15.90;9.97;;;10.70;99.90;10.80;99236.00;;;;4875996;28;109096;-64
2024/03/10 09:01:57;;;;;;;15.30;9.37;;;10.80;99.90;10.80;99240.00;;;;4877079;28;90449;-64
2024/03/10 09:04:23;;;;;;;16.90;9.70;;;10.80;99.90;10.90;99234.00;;;;4878243;28;88761;-65
2024/03/10 09:06:49;;;;;;;14.47;8.90;;;10.90;99.90;10.90;99231.00;;;;4873703;28;110715;-65
2024/03/10 09:09:18;;;;;;;16.60;9.60;;;10.90;99.90;11.00;99225.00;;;;4874895;28;87936;-65
2024/03/10 09:11:48;;;;;;;15.47;8.83;;;10.90;99.90;11.10;99236.00;;;;4874519;28;88999;-64
2024/03/10 09:14:13;;;;;;;18.73;9.33;;;11.00;99.90;11.10;99233.00;;;;4874889;28;88926;-65
2024/03/10 09:16:39;;;;;;;12.37;9.13;;;11.10;99.90;11.10;99234.00;;;;4872958;28;87971;-64
2024/03/10 09:19:07;;;;;;;16.20;9.63;;;11.10;99.90;11.20;99232.00;;;;4872784;28;108252;-63
2024/03/10 09:21:33;;;;;;;12.00;8.43;;;11.10;99.90;11.30;99234.00;;;;4871730;28;88999;-64
2024/03/10 09:24:00;;;;;;;17.60;9.57;;;11.20;99.90;11.50;99228.00;;;;4872589;28;116502;-64
2024/03/10 09:26:28;;;;;;;14.27;8.63;;;11.40;99.90;11.70;99230.00;;;;4874844;28;88701;-64
2024/03/10 09:28:55;;;;;;;18.33;8.23;;;11.60;99.90;12.00;99245.00;;;;4875482;28;88012;-64
2024/03/10 09:31:23;;;;;;;13.90;8.37;;;11.80;99.90;12.10;99247.00;;;;4879379;28;88392;-63
2024/03/10 09:33:50;;;;;;;13.93;7.03;;;12.00;99.90;12.20;99244.00;;;;4872922;28;88292;-64
2024/03/10 09:36:17;;;;;;;12.47;7.80;;;12.10;99.90;12.30;99240.00;;;;4873247;28;87927;-64
2024/03/10 09:38:44;;;;;;;11.90;7.60;;;12.20;99.90;12.40;99243.00;;;;4872481;28;94358;-64
2024/03/10 09:41:11;;;;;;;15.03;7.93;;;12.30;99.90;12.60;99235.00;;;;4873683;28;88471;-63
2024/03/10 09:43:39;;;;;;;12.70;7.53;;;12.50;99.90;12.60;99233.00;;;;4871751;28;89030;-64
2024/03/10 09:46:05;;;;;;;15.50;8.90;;;12.50;99.90;12.70;99231.00;;;;4875676;28;88011;-64
2024/03/10 09:48:32;;;;;;;16.10;7.83;;;12.60;99.90;12.80;99232.00;;;;4896944;28;88211;-64
2024/03/10 09:50:58;;;;;;;9.53;7.33;;;12.70;99.90;12.80;99225.00;;;;4873278;28;89980;-64
2024/03/10 09:53:26;;;;;;;17.07;8.37;;;12.70;99.90;12.80;99217.00;;;;4874090;28;88455;-64
2024/03/10 09:55:52;;;;;;;12.70;8.37;;;12.70;99.90;12.80;99227.00;;;;4881444;28;87924;-65
2024/03/10 09:58:34;;;;;;;12.67;7.30;;;12.70;99.90;12.90;99221.00;;;;4876500;28;87785;-64
2024/03/10 10:01:11;;;;;;;15.97;8.60;;;12.80;99.90;12.80;99224.00;;;;4875960;28;91666;-64
2024/03/10 10:03:42;;;;;;;14.97;8.03;;;12.80;99.90;12.80;99226.00;;;;4868129;28;88062;-65
2024/03/10 10:06:08;;;;;;;10.20;7.37;;;12.70;99.90;12.70;99219.00;;;;4873877;28;88349;-64
2024/03/10 10:08:34;;;;;;;14.43;8.27;;;12.70;99.90;12.70;99213.00;;;;4869995;28;108171;-64
2024/03/10 10:11:00;;;;;;;13.87;7.50;;;12.70;99.90;12.70;99199.00;;;;4875477;28;108107;-64
2024/03/10 10:13:27;;;;;;;11.40;8.33;;;12.70;99.90;12.60;99206.00;;;;4865107;28;89266;-64
2024/03/10 10:15:54;;;;;;;8.50;6.50;;;12.60;99.90;12.60;99209.00;;;;4867948;28;89059;-64
2024/03/10 10:18:21;;;;;;;9.30;6.37;;;12.50;99.90;12.50;99209.00;;;;4871430;28;89076;-64
2024/03/10 10:20:53;;;;;;;10.70;8.13;;;12.50;99.90;12.40;99210.00;;;;4864612;28;94072;-64
2024/03/10 10:23:23;;;;;;;12.80;7.73;;;12.40;99.90;12.30;99211.00;;;;4870907;28;88377;-64
2024/03/10 10:26:09;;;;;;;13.47;8.73;;;12.30;99.90;12.20;99203.00;;;;4873921;28;88495;-64
2024/03/10 10:28:41;;;;;;;12.90;7.63;;;12.20;99.90;12.10;99206.00;;;;4870131;28;89255;-64
2024/03/10 10:31:15;;;;;;;16.30;8.50;;;12.10;99.90;12.10;99202.00;;;;4877576;28;89295;-63
2024/03/10 10:33:45;;;;;;;13.80;9.13;;;12.10;99.90;12.10;99203.00;;;;4875886;28;89118;-63
2024/03/10 10:36:12;;;;;;;14.77;8.87;;;12.10;99.90;12.10;99200.00;;;;4870447;28;87897;-64
2024/03/10 10:38:45;;;;;;;11.80;8.37;;;12.00;99.90;12.10;99202.00;;;;4877256;28;88201;-65
2024/03/10 10:41:11;;;;;;;13.10;9.17;;;12.00;99.90;12.10;99196.00;;;;4877734;28;90730;-66
2024/03/10 10:43:38;;;;;;;13.03;7.87;;;12.00;99.90;12.10;99202.00;;;;4877938;28;88872;-64
2024/03/10 10:46:14;;;;;;;11.07;7.83;;;12.00;99.90;12.10;99193.00;;;;4877299;28;87964;-64
2024/03/10 10:48:41;;;;;;;12.50;7.70;;;12.10;99.90;12.10;99190.00;;;;4877804;28;87706;-64
2024/03/10 10:51:07;;;;;;;11.77;6.97;;;12.10;99.90;12.20;99188.00;;;;4874608;28;88513;-66
2024/03/10 10:53:34;;;;;;;10.10;7.27;;;12.10;99.90;12.20;99178.00;;;;4874774;28;89194;-62
2024/03/10 10:56:01;;;;;;;16.63;8.10;;;12.10;99.90;12.20;99181.00;;;;4881430;28;87916;-64
2024/03/10 10:58:33;;;;;;;10.13;7.60;;;12.10;99.90;12.20;99185.00;;;;4884677;28;87100;-63
2024/03/10 11:01:04;;;;;;;10.87;7.17;;;12.10;99.90;12.10;99177.00;;;;4876559;28;88889;-64
2024/03/10 11:03:36;;;;;;;16.07;8.63;;;12.10;99.90;12.10;99177.00;;;;4874289;28;88892;-64
2024/03/10 11:06:01;;;;;;;11.47;7.70;;;12.10;99.90;12.10;99169.00;;;;4871359;28;88985;-64
2024/03/10 11:08:31;;;;;;;12.53;7.80;;;12.00;99.90;12.00;99166.00;;;;4875920;28;87761;-64
2024/03/10 11:10:57;;;;;;;12.67;7.97;;;12.00;99.90;12.00;99163.00;;;;4879044;28;102101;-64
2024/03/10 11:13:23;;;;;;;10.63;6.07;;;11.90;99.90;12.00;99164.00;;;;4878468;28;109484;-65